< < Back
Terminal Aerodrome Forecast


Current Version              Previous Versions:   1  2  3  4  5  6  7  8  9  

Terminal Aerodrome Forecast

263
FTUS42 KMLB 030529
TAFDAB
TAF
KDAB 030529Z 0306/0406 08003KT 3/4SM BR BKN003
      TEMPO 0306/0308 1/4SM FG OVC002
     FM030800 00000KT 1/2SM FG OVC002
      TEMPO 0308/0312 1/4SM FG VV002
     FM031500 05004KT P6SM SCT005 BKN012
     FM031600 09007KT P6SM SCT020
     FM031700 09008KT P6SM SCT030
     FM040000 13003KT P6SM FEW025 SCT250=

Latest METAR

392
SAUS80 KWBC 031100
MTRDAB
METAR KDAB 031053Z 00000KT 1/4SM FG OVC002 17/17 A3022 RMK AO2 SLP232
T01720172 $


USA.gov is the U.S. government's official web portal to all federal, state and local government web resources and services.